sensor_id;sensor_type;location;lat;lon;timestamp;P1;durP1;ratioP1;P2;durP2;ratioP2
14766;SDS011;7475;53.558;9.970;2023-11-19T00:00:38;5.63;;;4.55;;
14766;SDS011;7475;53.558;9.970;2023-11-19T00:03:03;7.45;;;4.65;;
14766;SDS011;7475;53.558;9.970;2023-11-19T00:05:28;6.22;;;4.47;;
14766;SDS011;7475;53.558;9.970;2023-11-19T00:07:54;4.85;;;2.70;;
14766;SDS011;7475;53.558;9.970;2023-11-19T00:10:19;8.95;;;5.45;;
14766;SDS011;7475;53.558;9.970;2023-11-19T00:12:46;7.00;;;4.85;;
14766;SDS011;7475;53.558;9.970;2023-11-19T00:15:12;8.50;;;5.82;;
14766;SDS011;7475;53.558;9.970;2023-11-19T00:17:37;9.57;;;5.90;;
14766;SDS011;7475;53.558;9.970;2023-11-19T00:20:04;6.25;;;4.07;;
14766;SDS011;7475;53.558;9.970;2023-11-19T00:22:31;6.20;;;4.78;;
14766;SDS011;7475;53.558;9.970;2023-11-19T00:24:56;6.05;;;5.22;;
14766;SDS011;7475;53.558;9.970;2023-11-19T00:27:21;5.75;;;4.75;;
14766;SDS011;7475;53.558;9.970;2023-11-19T00:29:47;5.95;;;4.50;;
14766;SDS011;7475;53.558;9.970;2023-11-19T00:32:12;7.10;;;4.63;;
14766;SDS011;7475;53.558;9.970;2023-11-19T00:34:37;7.03;;;5.03;;
14766;SDS011;7475;53.558;9.970;2023-11-19T00:37:03;9.15;;;5.75;;
14766;SDS011;7475;53.558;9.970;2023-11-19T00:39:29;6.88;;;4.72;;
14766;SDS011;7475;53.558;9.970;2023-11-19T00:41:54;6.32;;;4.00;;
14766;SDS011;7475;53.558;9.970;2023-11-19T00:44:19;3.95;;;2.80;;
14766;SDS011;7475;53.558;9.970;2023-11-19T00:46:44;3.85;;;3.40;;
14766;SDS011;7475;53.558;9.970;2023-11-19T00:49:10;4.35;;;2.83;;
14766;SDS011;7475;53.558;9.970;2023-11-19T00:51:36;3.80;;;2.85;;
14766;SDS011;7475;53.558;9.970;2023-11-19T00:54:01;10.00;;;5.90;;
14766;SDS011;7475;53.558;9.970;2023-11-19T00:56:27;7.22;;;4.28;;
14766;SDS011;7475;53.558;9.970;2023-11-19T00:58:53;5.80;;;2.85;;
14766;SDS011;7475;53.558;9.970;2023-11-19T01:01:18;9.80;;;5.88;;
14766;SDS011;7475;53.558;9.970;2023-11-19T01:03:44;5.78;;;4.05;;
14766;SDS011;7475;53.558;9.970;2023-11-19T01:06:09;6.18;;;4.40;;
14766;SDS011;7475;53.558;9.970;2023-11-19T01:08:34;7.85;;;3.30;;
14766;SDS011;7475;53.558;9.970;2023-11-19T01:11:01;5.00;;;3.80;;
14766;SDS011;7475;53.558;9.970;2023-11-19T01:13:26;8.68;;;4.43;;
14766;SDS011;7475;53.558;9.970;2023-11-19T01:15:51;15.23;;;9.50;;
14766;SDS011;7475;53.558;9.970;2023-11-19T01:18:16;9.85;;;5.60;;
14766;SDS011;7475;53.558;9.970;2023-11-19T01:20:41;3.78;;;2.65;;
14766;SDS011;7475;53.558;9.970;2023-11-19T01:23:07;3.28;;;2.80;;
14766;SDS011;7475;53.558;9.970;2023-11-19T01:25:32;3.40;;;2.63;;
14766;SDS011;7475;53.558;9.970;2023-11-19T01:27:59;3.53;;;2.63;;
14766;SDS011;7475;53.558;9.970;2023-11-19T01:30:24;3.72;;;2.30;;
14766;SDS011;7475;53.558;9.970;2023-11-19T01:32:49;78.63;;;42.45;;
14766;SDS011;7475;53.558;9.970;2023-11-19T01:35:15;7.55;;;4.50;;
14766;SDS011;7475;53.558;9.970;2023-11-19T01:37:40;2.80;;;2.28;;
14766;SDS011;7475;53.558;9.970;2023-11-19T01:40:05;4.28;;;2.83;;
14766;SDS011;7475;53.558;9.970;2023-11-19T01:42:36;5.13;;;3.67;;
14766;SDS011;7475;53.558;9.970;2023-11-19T01:45:02;5.60;;;2.78;;
14766;SDS011;7475;53.558;9.970;2023-11-19T01:47:28;1.95;;;1.70;;
14766;SDS011;7475;53.558;9.970;2023-11-19T01:49:53;2.85;;;2.17;;
14766;SDS011;7475;53.558;9.970;2023-11-19T01:52:19;6.03;;;3.22;;
14766;SDS011;7475;53.558;9.970;2023-11-19T01:54:45;3.17;;;2.05;;
14766;SDS011;7475;53.558;9.970;2023-11-19T01:57:10;6.00;;;3.28;;
14766;SDS011;7475;53.558;9.970;2023-11-19T01:59:35;5.50;;;3.15;;
14766;SDS011;7475;53.558;9.970;2023-11-19T02:02:01;2.45;;;1.73;;
14766;SDS011;7475;53.558;9.970;2023-11-19T02:04:26;3.28;;;1.73;;
14766;SDS011;7475;53.558;9.970;2023-11-19T02:06:51;4.20;;;2.25;;
14766;SDS011;7475;53.558;9.970;2023-11-19T02:09:19;3.85;;;1.75;;
14766;SDS011;7475;53.558;9.970;2023-11-19T02:11:44;1.83;;;1.10;;
14766;SDS011;7475;53.558;9.970;2023-11-19T02:14:10;51.13;;;22.10;;
14766;SDS011;7475;53.558;9.970;2023-11-19T02:16:36;53.05;;;27.88;;
14766;SDS011;7475;53.558;9.970;2023-11-19T02:19:01;9.43;;;4.38;;
14766;SDS011;7475;53.558;9.970;2023-11-19T02:21:28;8.20;;;3.30;;
14766;SDS011;7475;53.558;9.970;2023-11-19T02:23:54;5.40;;;2.70;;
14766;SDS011;7475;53.558;9.970;2023-11-19T02:26:41;3.63;;;2.08;;
14766;SDS011;7475;53.558;9.970;2023-11-19T02:29:09;6.60;;;2.75;;
14766;SDS011;7475;53.558;9.970;2023-11-19T02:31:34;2.50;;;1.52;;
14766;SDS011;7475;53.558;9.970;2023-11-19T02:34:00;2.97;;;1.55;;
14766;SDS011;7475;53.558;9.970;2023-11-19T02:36:27;8.77;;;4.15;;
14766;SDS011;7475;53.558;9.970;2023-11-19T02:38:52;10.07;;;4.57;;
14766;SDS011;7475;53.558;9.970;2023-11-19T02:41:17;2.53;;;1.50;;
14766;SDS011;7475;53.558;9.970;2023-11-19T02:43:43;5.75;;;2.45;;
14766;SDS011;7475;53.558;9.970;2023-11-19T02:46:08;13.02;;;5.50;;
14766;SDS011;7475;53.558;9.970;2023-11-19T02:48:36;7.93;;;3.10;;
14766;SDS011;7475;53.558;9.970;2023-11-19T02:51:05;1.20;;;1.10;;
14766;SDS011;7475;53.558;9.970;2023-11-19T02:53:34;1.92;;;1.40;;
14766;SDS011;7475;53.558;9.970;2023-11-19T02:55:59;4.03;;;2.20;;
14766;SDS011;7475;53.558;9.970;2023-11-19T02:58:37;3.80;;;2.13;;
14766;SDS011;7475;53.558;9.970;2023-11-19T03:01:02;7.50;;;2.85;;
14766;SDS011;7475;53.558;9.970;2023-11-19T03:03:37;2.05;;;1.50;;
14766;SDS011;7475;53.558;9.970;2023-11-19T03:06:04;4.78;;;2.20;;
14766;SDS011;7475;53.558;9.970;2023-11-19T03:08:30;1.20;;;1.10;;
14766;SDS011;7475;53.558;9.970;2023-11-19T03:10:55;5.50;;;2.00;;
14766;SDS011;7475;53.558;9.970;2023-11-19T03:13:20;14.25;;;5.70;;
14766;SDS011;7475;53.558;9.970;2023-11-19T03:15:45;6.10;;;3.30;;
14766;SDS011;7475;53.558;9.970;2023-11-19T03:18:11;4.68;;;2.80;;
14766;SDS011;7475;53.558;9.970;2023-11-19T03:20:36;7.50;;;3.75;;
14766;SDS011;7475;53.558;9.970;2023-11-19T03:23:01;8.23;;;3.67;;
14766;SDS011;7475;53.558;9.970;2023-11-19T03:25:27;3.28;;;1.98;;
14766;SDS011;7475;53.558;9.970;2023-11-19T03:27:52;4.22;;;2.50;;
14766;SDS011;7475;53.558;9.970;2023-11-19T03:30:18;3.08;;;2.10;;
14766;SDS011;7475;53.558;9.970;2023-11-19T03:32:43;9.27;;;4.45;;
14766;SDS011;7475;53.558;9.970;2023-11-19T03:35:09;7.45;;;4.63;;
14766;SDS011;7475;53.558;9.970;2023-11-19T03:37:34;11.30;;;4.65;;
14766;SDS011;7475;53.558;9.970;2023-11-19T03:39:59;8.05;;;3.05;;
14766;SDS011;7475;53.558;9.970;2023-11-19T03:42:27;4.28;;;2.40;;
14766;SDS011;7475;53.558;9.970;2023-11-19T03:44:53;11.13;;;4.32;;
14766;SDS011;7475;53.558;9.970;2023-11-19T03:47:19;4.72;;;3.25;;
14766;SDS011;7475;53.558;9.970;2023-11-19T03:49:50;2.33;;;2.13;;
14766;SDS011;7475;53.558;9.970;2023-11-19T03:52:16;5.88;;;3.38;;
14766;SDS011;7475;53.558;9.970;2023-11-19T03:54:41;7.32;;;3.42;;
14766;SDS011;7475;53.558;9.970;2023-11-19T03:57:06;4.82;;;3.05;;
14766;SDS011;7475;53.558;9.970;2023-11-19T03:59:32;7.45;;;3.70;;
14766;SDS011;7475;53.558;9.970;2023-11-19T04:01:58;4.20;;;2.58;;
14766;SDS011;7475;53.558;9.970;2023-11-19T04:04:25;7.63;;;4.32;;
14766;SDS011;7475;53.558;9.970;2023-11-19T04:06:50;6.38;;;3.55;;
14766;SDS011;7475;53.558;9.970;2023-11-19T04:09:15;6.57;;;3.70;;
14766;SDS011;7475;53.558;9.970;2023-11-19T04:11:41;12.25;;;6.22;;
14766;SDS011;7475;53.558;9.970;2023-11-19T04:14:06;5.68;;;3.30;;
14766;SDS011;7475;53.558;9.970;2023-11-19T04:16:31;4.60;;;3.15;;
14766;SDS011;7475;53.558;9.970;2023-11-19T04:18:56;10.93;;;3.95;;
14766;SDS011;7475;53.558;9.970;2023-11-19T04:21:22;8.25;;;3.90;;
14766;SDS011;7475;53.558;9.970;2023-11-19T04:23:48;9.10;;;4.95;;
14766;SDS011;7475;53.558;9.970;2023-11-19T04:26:13;8.23;;;3.70;;
14766;SDS011;7475;53.558;9.970;2023-11-19T04:28:38;5.75;;;3.35;;
14766;SDS011;7475;53.558;9.970;2023-11-19T04:31:04;8.20;;;4.00;;
14766;SDS011;7475;53.558;9.970;2023-11-19T04:33:29;12.82;;;5.38;;
14766;SDS011;7475;53.558;9.970;2023-11-19T04:35:54;5.13;;;3.15;;
14766;SDS011;7475;53.558;9.970;2023-11-19T04:38:20;7.68;;;4.45;;
14766;SDS011;7475;53.558;9.970;2023-11-19T04:40:45;9.32;;;4.80;;
14766;SDS011;7475;53.558;9.970;2023-11-19T04:43:10;9.38;;;5.35;;
14766;SDS011;7475;53.558;9.970;2023-11-19T04:45:35;9.05;;;4.93;;
14766;SDS011;7475;53.558;9.970;2023-11-19T04:48:00;7.93;;;4.80;;
14766;SDS011;7475;53.558;9.970;2023-11-19T04:50:25;9.80;;;5.28;;
14766;SDS011;7475;53.558;9.970;2023-11-19T04:52:52;7.97;;;5.80;;
14766;SDS011;7475;53.558;9.970;2023-11-19T04:55:17;8.65;;;5.55;;
14766;SDS011;7475;53.558;9.970;2023-11-19T04:57:43;7.70;;;6.15;;
14766;SDS011;7475;53.558;9.970;2023-11-19T05:00:08;10.05;;;6.22;;
14766;SDS011;7475;53.558;9.970;2023-11-19T05:02:35;6.82;;;5.80;;
14766;SDS011;7475;53.558;9.970;2023-11-19T05:05:01;8.88;;;5.97;;
14766;SDS011;7475;53.558;9.970;2023-11-19T05:07:26;11.93;;;8.30;;
14766;SDS011;7475;53.558;9.970;2023-11-19T05:09:51;14.02;;;9.63;;
14766;SDS011;7475;53.558;9.970;2023-11-19T05:12:17;18.25;;;10.77;;
14766;SDS011;7475;53.558;9.970;2023-11-19T05:14:42;16.40;;;10.33;;
14766;SDS011;7475;53.558;9.970;2023-11-19T05:17:14;23.80;;;13.25;;
14766;SDS011;7475;53.558;9.970;2023-11-19T05:19:39;19.63;;;11.85;;
14766;SDS011;7475;53.558;9.970;2023-11-19T05:22:04;23.50;;;13.20;;
14766;SDS011;7475;53.558;9.970;2023-11-19T05:24:31;19.30;;;12.25;;
14766;SDS011;7475;53.558;9.970;2023-11-19T05:26:56;22.08;;;13.18;;
14766;SDS011;7475;53.558;9.970;2023-11-19T05:29:21;22.27;;;14.45;;
14766;SDS011;7475;53.558;9.970;2023-11-19T05:31:46;23.98;;;13.90;;
14766;SDS011;7475;53.558;9.970;2023-11-19T05:34:12;25.85;;;14.00;;
14766;SDS011;7475;53.558;9.970;2023-11-19T05:36:40;22.05;;;13.98;;
14766;SDS011;7475;53.558;9.970;2023-11-19T05:39:05;25.90;;;15.13;;
14766;SDS011;7475;53.558;9.970;2023-11-19T05:41:30;26.33;;;15.93;;
14766;SDS011;7475;53.558;9.970;2023-11-19T05:43:56;28.70;;;17.30;;
14766;SDS011;7475;53.558;9.970;2023-11-19T05:46:21;33.28;;;17.33;;
14766;SDS011;7475;53.558;9.970;2023-11-19T05:48:46;25.95;;;17.95;;
14766;SDS011;7475;53.558;9.970;2023-11-19T05:51:12;29.58;;;19.05;;
14766;SDS011;7475;53.558;9.970;2023-11-19T05:53:37;32.58;;;18.30;;
14766;SDS011;7475;53.558;9.970;2023-11-19T05:56:03;30.15;;;18.70;;
14766;SDS011;7475;53.558;9.970;2023-11-19T05:58:29;37.42;;;17.90;;
14766;SDS011;7475;53.558;9.970;2023-11-19T06:00:55;31.48;;;18.27;;
14766;SDS011;7475;53.558;9.970;2023-11-19T06:03:20;36.35;;;18.08;;
14766;SDS011;7475;53.558;9.970;2023-11-19T06:05:46;32.80;;;16.85;;
14766;SDS011;7475;53.558;9.970;2023-11-19T06:08:12;30.65;;;16.90;;
14766;SDS011;7475;53.558;9.970;2023-11-19T06:10:41;36.85;;;17.95;;
14766;SDS011;7475;53.558;9.970;2023-11-19T06:13:06;32.42;;;16.30;;
14766;SDS011;7475;53.558;9.970;2023-11-19T06:15:32;33.28;;;16.15;;
14766;SDS011;7475;53.558;9.970;2023-11-19T06:17:58;38.63;;;16.73;;
14766;SDS011;7475;53.558;9.970;2023-11-19T06:20:26;30.48;;;15.55;;
14766;SDS011;7475;53.558;9.970;2023-11-19T06:22:52;32.38;;;15.20;;
14766;SDS011;7475;53.558;9.970;2023-11-19T06:25:17;33.35;;;15.80;;
14766;SDS011;7475;53.558;9.970;2023-11-19T06:27:43;28.23;;;13.93;;
14766;SDS011;7475;53.558;9.970;2023-11-19T06:30:09;32.45;;;14.80;;
14766;SDS011;7475;53.558;9.970;2023-11-19T06:32:34;34.47;;;14.07;;
14766;SDS011;7475;53.558;9.970;2023-11-19T06:34:59;31.33;;;13.95;;
14766;SDS011;7475;53.558;9.970;2023-11-19T06:37:25;22.55;;;11.48;;
14766;SDS011;7475;53.558;9.970;2023-11-19T06:39:50;28.20;;;11.77;;
14766;SDS011;7475;53.558;9.970;2023-11-19T06:42:15;28.35;;;11.75;;
14766;SDS011;7475;53.558;9.970;2023-11-19T06:44:40;26.83;;;11.43;;
14766;SDS011;7475;53.558;9.970;2023-11-19T06:47:05;31.05;;;11.25;;
14766;SDS011;7475;53.558;9.970;2023-11-19T06:49:31;26.52;;;11.48;;
14766;SDS011;7475;53.558;9.970;2023-11-19T06:51:56;29.70;;;12.40;;
14766;SDS011;7475;53.558;9.970;2023-11-19T06:54:21;33.38;;;11.98;;
14766;SDS011;7475;53.558;9.970;2023-11-19T06:56:47;25.60;;;12.10;;
14766;SDS011;7475;53.558;9.970;2023-11-19T06:59:13;32.60;;;11.00;;
14766;SDS011;7475;53.558;9.970;2023-11-19T07:01:39;28.52;;;11.25;;
14766;SDS011;7475;53.558;9.970;2023-11-19T07:04:04;32.13;;;11.27;;
14766;SDS011;7475;53.558;9.970;2023-11-19T07:06:34;31.73;;;10.88;;
14766;SDS011;7475;53.558;9.970;2023-11-19T07:08:59;27.25;;;10.10;;
14766;SDS011;7475;53.558;9.970;2023-11-19T07:11:24;26.20;;;9.40;;
14766;SDS011;7475;53.558;9.970;2023-11-19T07:13:49;33.75;;;9.70;;
14766;SDS011;7475;53.558;9.970;2023-11-19T07:16:15;33.88;;;10.07;;
14766;SDS011;7475;53.558;9.970;2023-11-19T07:18:40;25.92;;;8.70;;
14766;SDS011;7475;53.558;9.970;2023-11-19T07:21:06;24.95;;;8.20;;
14766;SDS011;7475;53.558;9.970;2023-11-19T07:23:35;27.15;;;8.18;;
14766;SDS011;7475;53.558;9.970;2023-11-19T07:26:00;26.83;;;7.22;;
14766;SDS011;7475;53.558;9.970;2023-11-19T07:28:26;26.40;;;6.97;;
14766;SDS011;7475;53.558;9.970;2023-11-19T07:31:02;28.25;;;7.40;;
14766;SDS011;7475;53.558;9.970;2023-11-19T07:33:27;20.30;;;6.45;;
14766;SDS011;7475;53.558;9.970;2023-11-19T07:35:53;27.48;;;6.70;;
14766;SDS011;7475;53.558;9.970;2023-11-19T07:38:18;27.90;;;5.93;;
14766;SDS011;7475;53.558;9.970;2023-11-19T07:40:43;33.97;;;6.47;;
14766;SDS011;7475;53.558;9.970;2023-11-19T07:43:09;24.10;;;5.60;;
14766;SDS011;7475;53.558;9.970;2023-11-19T07:45:34;25.00;;;6.53;;
14766;SDS011;7475;53.558;9.970;2023-11-19T07:47:59;24.15;;;6.45;;
14766;SDS011;7475;53.558;9.970;2023-11-19T07:50:26;32.40;;;6.80;;
14766;SDS011;7475;53.558;9.970;2023-11-19T07:52:51;32.35;;;6.85;;
14766;SDS011;7475;53.558;9.970;2023-11-19T07:55:16;33.53;;;6.93;;
14766;SDS011;7475;53.558;9.970;2023-11-19T07:57:42;40.43;;;8.00;;
14766;SDS011;7475;53.558;9.970;2023-11-19T08:00:07;33.70;;;7.60;;
14766;SDS011;7475;53.558;9.970;2023-11-19T08:02:35;30.10;;;7.32;;
14766;SDS011;7475;53.558;9.970;2023-11-19T08:05:00;29.47;;;6.67;;
14766;SDS011;7475;53.558;9.970;2023-11-19T08:07:26;31.30;;;7.18;;
14766;SDS011;7475;53.558;9.970;2023-11-19T08:09:51;35.08;;;7.15;;
14766;SDS011;7475;53.558;9.970;2023-11-19T08:12:17;28.10;;;5.80;;
14766;SDS011;7475;53.558;9.970;2023-11-19T08:14:42;27.27;;;6.13;;
14766;SDS011;7475;53.558;9.970;2023-11-19T08:17:08;36.70;;;7.00;;
14766;SDS011;7475;53.558;9.970;2023-11-19T08:19:34;32.00;;;7.10;;
14766;SDS011;7475;53.558;9.970;2023-11-19T08:21:59;33.53;;;7.53;;
14766;SDS011;7475;53.558;9.970;2023-11-19T08:24:24;30.00;;;7.90;;
14766;SDS011;7475;53.558;9.970;2023-11-19T08:26:49;32.85;;;6.45;;
14766;SDS011;7475;53.558;9.970;2023-11-19T08:29:14;38.50;;;6.72;;
14766;SDS011;7475;53.558;9.970;2023-11-19T08:31:40;36.63;;;6.22;;
14766;SDS011;7475;53.558;9.970;2023-11-19T08:34:05;35.90;;;6.25;;
14766;SDS011;7475;53.558;9.970;2023-11-19T08:36:33;29.63;;;5.95;;
14766;SDS011;7475;53.558;9.970;2023-11-19T08:38:59;29.08;;;5.43;;
14766;SDS011;7475;53.558;9.970;2023-11-19T08:41:24;29.23;;;5.70;;
14766;SDS011;7475;53.558;9.970;2023-11-19T08:43:50;30.65;;;5.50;;
14766;SDS011;7475;53.558;9.970;2023-11-19T08:46:16;31.63;;;5.40;;
14766;SDS011;7475;53.558;9.970;2023-11-19T08:48:41;28.50;;;5.75;;
14766;SDS011;7475;53.558;9.970;2023-11-19T08:51:07;32.72;;;5.82;;
14766;SDS011;7475;53.558;9.970;2023-11-19T08:53:32;31.05;;;5.45;;
14766;SDS011;7475;53.558;9.970;2023-11-19T08:55:57;27.40;;;5.22;;
14766;SDS011;7475;53.558;9.970;2023-11-19T08:58:22;29.02;;;5.57;;
14766;SDS011;7475;53.558;9.970;2023-11-19T09:00:48;28.60;;;5.27;;
14766;SDS011;7475;53.558;9.970;2023-11-19T09:03:13;28.73;;;5.78;;
14766;SDS011;7475;53.558;9.970;2023-11-19T09:05:38;31.80;;;5.60;;
14766;SDS011;7475;53.558;9.970;2023-11-19T09:08:03;34.38;;;6.22;;
14766;SDS011;7475;53.558;9.970;2023-11-19T09:10:29;25.77;;;5.30;;
14766;SDS011;7475;53.558;9.970;2023-11-19T09:12:54;32.40;;;5.47;;
14766;SDS011;7475;53.558;9.970;2023-11-19T09:15:20;27.07;;;5.87;;
14766;SDS011;7475;53.558;9.970;2023-11-19T09:17:45;35.95;;;6.30;;
14766;SDS011;7475;53.558;9.970;2023-11-19T09:20:13;29.60;;;5.72;;
14766;SDS011;7475;53.558;9.970;2023-11-19T09:22:40;27.50;;;4.80;;
14766;SDS011;7475;53.558;9.970;2023-11-19T09:25:06;31.63;;;5.53;;
14766;SDS011;7475;53.558;9.970;2023-11-19T09:27:31;30.60;;;5.68;;
14766;SDS011;7475;53.558;9.970;2023-11-19T09:29:56;29.95;;;5.78;;
14766;SDS011;7475;53.558;9.970;2023-11-19T09:32:23;36.20;;;6.20;;
14766;SDS011;7475;53.558;9.970;2023-11-19T09:34:48;29.17;;;5.40;;
14766;SDS011;7475;53.558;9.970;2023-11-19T09:37:14;28.47;;;5.87;;
14766;SDS011;7475;53.558;9.970;2023-11-19T09:39:39;24.30;;;5.07;;
14766;SDS011;7475;53.558;9.970;2023-11-19T09:42:08;27.73;;;4.95;;
14766;SDS011;7475;53.558;9.970;2023-11-19T09:44:33;27.80;;;5.53;;
14766;SDS011;7475;53.558;9.970;2023-11-19T09:46:58;30.27;;;6.10;;
14766;SDS011;7475;53.558;9.970;2023-11-19T09:49:24;27.05;;;5.50;;
14766;SDS011;7475;53.558;9.970;2023-11-19T09:51:51;28.25;;;5.63;;
14766;SDS011;7475;53.558;9.970;2023-11-19T09:54:16;31.08;;;5.45;;
14766;SDS011;7475;53.558;9.970;2023-11-19T09:56:41;26.95;;;5.90;;
14766;SDS011;7475;53.558;9.970;2023-11-19T09:59:07;25.40;;;5.60;;
14766;SDS011;7475;53.558;9.970;2023-11-19T10:01:34;27.55;;;6.03;;
14766;SDS011;7475;53.558;9.970;2023-11-19T10:04:00;25.15;;;6.00;;
14766;SDS011;7475;53.558;9.970;2023-11-19T10:06:26;28.23;;;5.50;;
14766;SDS011;7475;53.558;9.970;2023-11-19T10:08:51;28.85;;;5.18;;
14766;SDS011;7475;53.558;9.970;2023-11-19T10:11:17;29.00;;;5.32;;
14766;SDS011;7475;53.558;9.970;2023-11-19T10:13:42;29.10;;;5.60;;
14766;SDS011;7475;53.558;9.970;2023-11-19T10:16:13;32.65;;;6.30;;
14766;SDS011;7475;53.558;9.970;2023-11-19T10:18:46;30.77;;;5.55;;
14766;SDS011;7475;53.558;9.970;2023-11-19T10:21:14;28.63;;;5.40;;
14766;SDS011;7475;53.558;9.970;2023-11-19T10:26:32;34.22;;;6.25;;
14766;SDS011;7475;53.558;9.970;2023-11-19T10:28:59;30.60;;;6.57;;
14766;SDS011;7475;53.558;9.970;2023-11-19T10:31:24;28.33;;;5.32;;
14766;SDS011;7475;53.558;9.970;2023-11-19T10:33:53;31.00;;;6.70;;
14766;SDS011;7475;53.558;9.970;2023-11-19T10:36:19;32.88;;;6.03;;
14766;SDS011;7475;53.558;9.970;2023-11-19T10:38:54;34.47;;;6.53;;
14766;SDS011;7475;53.558;9.970;2023-11-19T10:41:27;41.92;;;6.38;;
14766;SDS011;7475;53.558;9.970;2023-11-19T10:43:52;27.15;;;4.75;;
14766;SDS011;7475;53.558;9.970;2023-11-19T10:46:17;32.20;;;6.70;;
14766;SDS011;7475;53.558;9.970;2023-11-19T10:48:46;32.97;;;5.63;;
14766;SDS011;7475;53.558;9.970;2023-11-19T10:51:11;32.75;;;5.10;;
14766;SDS011;7475;53.558;9.970;2023-11-19T10:53:39;32.97;;;5.72;;
14766;SDS011;7475;53.558;9.970;2023-11-19T10:56:06;29.75;;;5.82;;
14766;SDS011;7475;53.558;9.970;2023-11-19T10:58:35;30.83;;;6.25;;
14766;SDS011;7475;53.558;9.970;2023-11-19T11:01:03;34.80;;;7.05;;
14766;SDS011;7475;53.558;9.970;2023-11-19T11:03:36;25.95;;;6.18;;
14766;SDS011;7475;53.558;9.970;2023-11-19T11:06:04;34.15;;;6.15;;
14766;SDS011;7475;53.558;9.970;2023-11-19T11:08:29;31.75;;;5.38;;
14766;SDS011;7475;53.558;9.970;2023-11-19T11:10:55;32.25;;;5.93;;
14766;SDS011;7475;53.558;9.970;2023-11-19T11:13:22;22.67;;;5.72;;
14766;SDS011;7475;53.558;9.970;2023-11-19T11:15:47;33.92;;;6.68;;
14766;SDS011;7475;53.558;9.970;2023-11-19T11:18:13;27.75;;;5.47;;
14766;SDS011;7475;53.558;9.970;2023-11-19T11:20:38;28.92;;;5.38;;
14766;SDS011;7475;53.558;9.970;2023-11-19T11:31:25;30.67;;;6.32;;
14766;SDS011;7475;53.558;9.970;2023-11-19T11:33:58;25.58;;;6.22;;
14766;SDS011;7475;53.558;9.970;2023-11-19T11:36:24;30.77;;;5.57;;
14766;SDS011;7475;53.558;9.970;2023-11-19T11:38:50;35.08;;;6.45;;
14766;SDS011;7475;53.558;9.970;2023-11-19T11:41:22;33.80;;;6.80;;
14766;SDS011;7475;53.558;9.970;2023-11-19T11:43:49;31.95;;;6.25;;
14766;SDS011;7475;53.558;9.970;2023-11-19T11:49:00;31.83;;;6.32;;
14766;SDS011;7475;53.558;9.970;2023-11-19T12:02:12;32.75;;;6.90;;
14766;SDS011;7475;53.558;9.970;2023-11-19T12:04:41;23.42;;;5.13;;
14766;SDS011;7475;53.558;9.970;2023-11-19T12:07:08;26.30;;;5.45;;
14766;SDS011;7475;53.558;9.970;2023-11-19T12:09:36;28.33;;;6.18;;
14766;SDS011;7475;53.558;9.970;2023-11-19T12:12:34;29.65;;;5.40;;
14766;SDS011;7475;53.558;9.970;2023-11-19T12:15:06;23.85;;;5.35;;
14766;SDS011;7475;53.558;9.970;2023-11-19T12:19:58;27.42;;;5.30;;
14766;SDS011;7475;53.558;9.970;2023-11-19T12:22:24;23.27;;;4.57;;
14766;SDS011;7475;53.558;9.970;2023-11-19T12:24:49;25.70;;;5.15;;
14766;SDS011;7475;53.558;9.970;2023-11-19T12:27:16;24.70;;;5.22;;
14766;SDS011;7475;53.558;9.970;2023-11-19T12:29:42;25.27;;;5.82;;
14766;SDS011;7475;53.558;9.970;2023-11-19T12:32:09;26.83;;;5.03;;
14766;SDS011;7475;53.558;9.970;2023-11-19T12:34:34;27.00;;;5.43;;
14766;SDS011;7475;53.558;9.970;2023-11-19T12:37:02;21.98;;;5.00;;
14766;SDS011;7475;53.558;9.970;2023-11-19T12:39:31;24.58;;;4.72;;
14766;SDS011;7475;53.558;9.970;2023-11-19T12:41:56;30.30;;;5.40;;
14766;SDS011;7475;53.558;9.970;2023-11-19T12:44:24;29.20;;;5.18;;
14766;SDS011;7475;53.558;9.970;2023-11-19T12:47:02;25.52;;;5.53;;
14766;SDS011;7475;53.558;9.970;2023-11-19T12:49:28;26.02;;;5.20;;
14766;SDS011;7475;53.558;9.970;2023-11-19T12:51:53;23.02;;;5.38;;
14766;SDS011;7475;53.558;9.970;2023-11-19T12:54:18;24.35;;;5.18;;
14766;SDS011;7475;53.558;9.970;2023-11-19T12:56:53;21.85;;;5.22;;
14766;SDS011;7475;53.558;9.970;2023-11-19T12:59:18;25.38;;;5.80;;
14766;SDS011;7475;53.558;9.970;2023-11-19T13:01:53;21.63;;;4.70;;
14766;SDS011;7475;53.558;9.970;2023-11-19T13:04:19;26.33;;;5.20;;
14766;SDS011;7475;53.558;9.970;2023-11-19T13:06:47;24.65;;;5.22;;
14766;SDS011;7475;53.558;9.970;2023-11-19T13:09:25;21.02;;;4.70;;
14766;SDS011;7475;53.558;9.970;2023-11-19T13:11:51;23.13;;;5.63;;
14766;SDS011;7475;53.558;9.970;2023-11-19T13:14:17;28.60;;;5.47;;
14766;SDS011;7475;53.558;9.970;2023-11-19T13:16:42;21.83;;;5.00;;
14766;SDS011;7475;53.558;9.970;2023-11-19T13:19:08;24.02;;;5.28;;
14766;SDS011;7475;53.558;9.970;2023-11-19T13:21:36;23.17;;;4.68;;
14766;SDS011;7475;53.558;9.970;2023-11-19T13:24:02;26.83;;;5.60;;
14766;SDS011;7475;53.558;9.970;2023-11-19T13:26:28;22.95;;;5.10;;
14766;SDS011;7475;53.558;9.970;2023-11-19T13:28:53;22.38;;;5.15;;
14766;SDS011;7475;53.558;9.970;2023-11-19T13:31:18;26.15;;;5.75;;
14766;SDS011;7475;53.558;9.970;2023-11-19T13:33:44;25.92;;;5.57;;
14766;SDS011;7475;53.558;9.970;2023-11-19T13:36:09;23.60;;;5.88;;
14766;SDS011;7475;53.558;9.970;2023-11-19T13:38:34;26.52;;;5.63;;
14766;SDS011;7475;53.558;9.970;2023-11-19T13:41:03;21.88;;;4.28;;
14766;SDS011;7475;53.558;9.970;2023-11-19T13:43:29;22.13;;;4.78;;
14766;SDS011;7475;53.558;9.970;2023-11-19T13:45:55;27.48;;;4.88;;
14766;SDS011;7475;53.558;9.970;2023-11-19T13:48:20;24.10;;;5.10;;
14766;SDS011;7475;53.558;9.970;2023-11-19T13:50:45;22.15;;;4.90;;
14766;SDS011;7475;53.558;9.970;2023-11-19T13:53:10;26.52;;;5.15;;
14766;SDS011;7475;53.558;9.970;2023-11-19T13:55:36;24.75;;;5.40;;
14766;SDS011;7475;53.558;9.970;2023-11-19T13:58:01;24.38;;;5.10;;
14766;SDS011;7475;53.558;9.970;2023-11-19T14:00:26;25.48;;;5.78;;
14766;SDS011;7475;53.558;9.970;2023-11-19T14:02:51;21.75;;;4.55;;
14766;SDS011;7475;53.558;9.970;2023-11-19T14:05:17;31.00;;;5.75;;
14766;SDS011;7475;53.558;9.970;2023-11-19T14:07:42;28.73;;;5.00;;
14766;SDS011;7475;53.558;9.970;2023-11-19T14:10:08;23.00;;;5.05;;
14766;SDS011;7475;53.558;9.970;2023-11-19T14:12:34;25.88;;;5.55;;
14766;SDS011;7475;53.558;9.970;2023-11-19T14:15:00;25.65;;;5.05;;
14766;SDS011;7475;53.558;9.970;2023-11-19T14:17:25;27.60;;;5.75;;
14766;SDS011;7475;53.558;9.970;2023-11-19T14:19:51;23.98;;;5.38;;
14766;SDS011;7475;53.558;9.970;2023-11-19T14:22:16;26.90;;;5.18;;
14766;SDS011;7475;53.558;9.970;2023-11-19T14:24:41;26.00;;;4.82;;
14766;SDS011;7475;53.558;9.970;2023-11-19T14:27:07;24.48;;;5.45;;
14766;SDS011;7475;53.558;9.970;2023-11-19T14:29:33;26.33;;;5.68;;
14766;SDS011;7475;53.558;9.970;2023-11-19T14:32:00;27.88;;;5.47;;
14766;SDS011;7475;53.558;9.970;2023-11-19T14:34:25;26.92;;;5.65;;
14766;SDS011;7475;53.558;9.970;2023-11-19T14:36:51;33.10;;;5.15;;
14766;SDS011;7475;53.558;9.970;2023-11-19T14:39:16;32.08;;;6.20;;
14766;SDS011;7475;53.558;9.970;2023-11-19T14:41:44;30.65;;;6.13;;
14766;SDS011;7475;53.558;9.970;2023-11-19T14:44:10;30.73;;;6.60;;
14766;SDS011;7475;53.558;9.970;2023-11-19T14:46:35;32.03;;;5.93;;
14766;SDS011;7475;53.558;9.970;2023-11-19T14:49:00;31.92;;;5.90;;
14766;SDS011;7475;53.558;9.970;2023-11-19T14:51:26;27.83;;;5.18;;
14766;SDS011;7475;53.558;9.970;2023-11-19T14:53:51;31.48;;;5.20;;
14766;SDS011;7475;53.558;9.970;2023-11-19T14:56:16;25.67;;;4.80;;
14766;SDS011;7475;53.558;9.970;2023-11-19T14:58:42;28.02;;;5.40;;
14766;SDS011;7475;53.558;9.970;2023-11-19T15:01:12;27.17;;;5.30;;
14766;SDS011;7475;53.558;9.970;2023-11-19T15:03:37;27.08;;;5.85;;
14766;SDS011;7475;53.558;9.970;2023-11-19T15:06:02;29.83;;;7.28;;
14766;SDS011;7475;53.558;9.970;2023-11-19T15:08:27;27.92;;;5.15;;
14766;SDS011;7475;53.558;9.970;2023-11-19T15:10:53;14.10;;;3.45;;